sensor_id;sensor_type;location;lat;lon;timestamp;temperature;humidity
10123;DHT22;5101;49.038;8.710;2023-03-01T00:02:19;1.60;81.50
10123;DHT22;5101;49.038;8.710;2023-03-01T00:04:44;1.50;81.60
10123;DHT22;5101;49.038;8.710;2023-03-01T00:07:10;1.80;81.90
10123;DHT22;5101;49.038;8.710;2023-03-01T00:09:36;1.50;81.90
10123;DHT22;5101;49.038;8.710;2023-03-01T00:12:02;1.50;82.10
10123;DHT22;5101;49.038;8.710;2023-03-01T00:14:28;1.40;82.10
10123;DHT22;5101;49.038;8.710;2023-03-01T00:16:53;1.40;82.50
10123;DHT22;5101;49.038;8.710;2023-03-01T00:19:20;1.40;82.80
10123;DHT22;5101;49.038;8.710;2023-03-01T00:21:47;1.30;83.10
10123;DHT22;5101;49.038;8.710;2023-03-01T00:24:13;1.30;83.30
10123;DHT22;5101;49.038;8.710;2023-03-01T00:26:38;1.20;83.50
10123;DHT22;5101;49.038;8.710;2023-03-01T00:29:04;1.20;84.00
10123;DHT22;5101;49.038;8.710;2023-03-01T00:31:31;1.10;84.40
10123;DHT22;5101;49.038;8.710;2023-03-01T00:33:59;1.00;84.50
10123;DHT22;5101;49.038;8.710;2023-03-01T00:36:27;1.00;84.90
10123;DHT22;5101;49.038;8.710;2023-03-01T00:38:53;1.00;85.00
10123;DHT22;5101;49.038;8.710;2023-03-01T00:41:20;1.10;85.10
10123;DHT22;5101;49.038;8.710;2023-03-01T00:43:46;1.00;85.20
10123;DHT22;5101;49.038;8.710;2023-03-01T00:46:17;1.00;85.30
10123;DHT22;5101;49.038;8.710;2023-03-01T00:48:42;1.00;85.50
10123;DHT22;5101;49.038;8.710;2023-03-01T00:53:37;1.00;85.70
10123;DHT22;5101;49.038;8.710;2023-03-01T00:56:04;1.10;85.60
10123;DHT22;5101;49.038;8.710;2023-03-01T00:58:29;1.10;85.70
10123;DHT22;5101;49.038;8.710;2023-03-01T01:00:55;1.00;85.80
10123;DHT22;5101;49.038;8.710;2023-03-01T01:03:21;1.00;85.90
10123;DHT22;5101;49.038;8.710;2023-03-01T01:05:46;1.00;86.00
10123;DHT22;5101;49.038;8.710;2023-03-01T01:08:12;1.00;86.00
10123;DHT22;5101;49.038;8.710;2023-03-01T01:10:37;1.00;86.00
10123;DHT22;5101;49.038;8.710;2023-03-01T01:13:03;1.00;86.30
10123;DHT22;5101;49.038;8.710;2023-03-01T01:15:32;1.00;86.50
10123;DHT22;5101;49.038;8.710;2023-03-01T01:17:58;1.00;86.70
10123;DHT22;5101;49.038;8.710;2023-03-01T01:20:23;0.90;86.90
10123;DHT22;5101;49.038;8.710;2023-03-01T01:22:49;0.90;87.00
10123;DHT22;5101;49.038;8.710;2023-03-01T01:25:14;0.80;87.30
10123;DHT22;5101;49.038;8.710;2023-03-01T01:27:40;0.80;87.50
10123;DHT22;5101;49.038;8.710;2023-03-01T01:30:06;0.80;87.70
10123;DHT22;5101;49.038;8.710;2023-03-01T01:32:31;0.80;87.90
10123;DHT22;5101;49.038;8.710;2023-03-01T01:34:57;0.80;88.00
10123;DHT22;5101;49.038;8.710;2023-03-01T01:37:22;0.80;88.10
10123;DHT22;5101;49.038;8.710;2023-03-01T01:39:48;0.80;88.20
10123;DHT22;5101;49.038;8.710;2023-03-01T01:42:17;0.70;88.40
10123;DHT22;5101;49.038;8.710;2023-03-01T01:44:46;0.70;88.70
10123;DHT22;5101;49.038;8.710;2023-03-01T01:47:20;0.70;88.70
10123;DHT22;5101;49.038;8.710;2023-03-01T01:49:54;0.60;89.00
10123;DHT22;5101;49.038;8.710;2023-03-01T01:52:25;0.60;89.20
10123;DHT22;5101;49.038;8.710;2023-03-01T01:55:06;0.60;89.20
10123;DHT22;5101;49.038;8.710;2023-03-01T02:00:06;0.60;89.50
10123;DHT22;5101;49.038;8.710;2023-03-01T02:02:32;0.70;89.60
10123;DHT22;5101;49.038;8.710;2023-03-01T02:05:16;0.70;89.60
10123;DHT22;5101;49.038;8.710;2023-03-01T02:07:46;0.70;89.70
10123;DHT22;5101;49.038;8.710;2023-03-01T02:10:12;0.90;89.80
10123;DHT22;5101;49.038;8.710;2023-03-01T02:12:38;0.60;89.60
10123;DHT22;5101;49.038;8.710;2023-03-01T02:15:05;0.60;90.00
10123;DHT22;5101;49.038;8.710;2023-03-01T02:17:31;0.60;90.00
10123;DHT22;5101;49.038;8.710;2023-03-01T02:20:21;0.70;90.10
10123;DHT22;5101;49.038;8.710;2023-03-01T02:22:48;0.70;90.10
10123;DHT22;5101;49.038;8.710;2023-03-01T02:25:22;0.70;90.00
10123;DHT22;5101;49.038;8.710;2023-03-01T02:30:33;0.60;90.10
10123;DHT22;5101;49.038;8.710;2023-03-01T02:33:00;0.50;90.20
10123;DHT22;5101;49.038;8.710;2023-03-01T02:35:30;0.50;90.30
10123;DHT22;5101;49.038;8.710;2023-03-01T02:37:57;0.60;90.30
10123;DHT22;5101;49.038;8.710;2023-03-01T02:40:28;0.50;90.40
10123;DHT22;5101;49.038;8.710;2023-03-01T02:42:56;0.50;90.40
10123;DHT22;5101;49.038;8.710;2023-03-01T02:45:22;0.50;90.40
10123;DHT22;5101;49.038;8.710;2023-03-01T02:47:48;0.50;90.50
10123;DHT22;5101;49.038;8.710;2023-03-01T02:53:15;0.30;90.70
10123;DHT22;5101;49.038;8.710;2023-03-01T02:55:42;0.30;90.80
10123;DHT22;5101;49.038;8.710;2023-03-01T02:58:07;0.30;90.80
10123;DHT22;5101;49.038;8.710;2023-03-01T03:00:38;0.30;90.80
10123;DHT22;5101;49.038;8.710;2023-03-01T03:03:06;0.30;90.90
10123;DHT22;5101;49.038;8.710;2023-03-01T03:05:32;0.40;90.90
10123;DHT22;5101;49.038;8.710;2023-03-01T03:07:59;0.40;90.80
10123;DHT22;5101;49.038;8.710;2023-03-01T03:10:35;0.30;90.90
10123;DHT22;5101;49.038;8.710;2023-03-01T03:13:05;0.30;90.90
10123;DHT22;5101;49.038;8.710;2023-03-01T03:15:31;0.30;91.00
10123;DHT22;5101;49.038;8.710;2023-03-01T03:18:01;0.30;91.10
10123;DHT22;5101;49.038;8.710;2023-03-01T03:20:28;0.30;91.10
10123;DHT22;5101;49.038;8.710;2023-03-01T03:22:55;0.40;91.10
10123;DHT22;5101;49.038;8.710;2023-03-01T03:25:22;0.40;91.20
10123;DHT22;5101;49.038;8.710;2023-03-01T03:27:49;0.40;91.10
10123;DHT22;5101;49.038;8.710;2023-03-01T03:30:23;0.50;91.10
10123;DHT22;5101;49.038;8.710;2023-03-01T03:32:48;0.50;91.10
10123;DHT22;5101;49.038;8.710;2023-03-01T03:35:22;0.50;91.10
10123;DHT22;5101;49.038;8.710;2023-03-01T03:37:48;0.50;91.00
10123;DHT22;5101;49.038;8.710;2023-03-01T03:40:50;0.50;91.00
10123;DHT22;5101;49.038;8.710;2023-03-01T03:43:21;0.50;90.90
10123;DHT22;5101;49.038;8.710;2023-03-01T03:45:48;0.50;90.90
10123;DHT22;5101;49.038;8.710;2023-03-01T03:48:15;0.50;91.00
10123;DHT22;5101;49.038;8.710;2023-03-01T03:50:41;0.40;91.00
10123;DHT22;5101;49.038;8.710;2023-03-01T03:53:09;0.40;91.00
10123;DHT22;5101;49.038;8.710;2023-03-01T03:55:35;0.40;91.10
10123;DHT22;5101;49.038;8.710;2023-03-01T03:58:05;0.30;91.10
10123;DHT22;5101;49.038;8.710;2023-03-01T04:00:33;0.10;91.20
10123;DHT22;5101;49.038;8.710;2023-03-01T04:02:58;0.10;91.40
10123;DHT22;5101;49.038;8.710;2023-03-01T04:05:24;0.20;91.40
10123;DHT22;5101;49.038;8.710;2023-03-01T04:07:50;0.10;91.40
10123;DHT22;5101;49.038;8.710;2023-03-01T04:10:27;0.20;91.50
10123;DHT22;5101;49.038;8.710;2023-03-01T04:12:52;0.20;91.40
10123;DHT22;5101;49.038;8.710;2023-03-01T04:15:18;0.20;91.40
10123;DHT22;5101;49.038;8.710;2023-03-01T04:17:45;0.20;91.50
10123;DHT22;5101;49.038;8.710;2023-03-01T04:20:15;0.20;91.60
10123;DHT22;5101;49.038;8.710;2023-03-01T04:22:43;0.10;91.60
10123;DHT22;5101;49.038;8.710;2023-03-01T04:25:09;0.10;91.60
10123;DHT22;5101;49.038;8.710;2023-03-01T04:27:35;0.10;91.70
10123;DHT22;5101;49.038;8.710;2023-03-01T04:30:02;0.10;91.70
10123;DHT22;5101;49.038;8.710;2023-03-01T04:32:28;0.10;91.80
10123;DHT22;5101;49.038;8.710;2023-03-01T04:34:53;0.10;91.70
10123;DHT22;5101;49.038;8.710;2023-03-01T04:37:19;0.10;91.80
10123;DHT22;5101;49.038;8.710;2023-03-01T04:39:44;0.10;91.90
10123;DHT22;5101;49.038;8.710;2023-03-01T04:42:13;0.10;92.00
10123;DHT22;5101;49.038;8.710;2023-03-01T04:44:39;0.00;92.00
10123;DHT22;5101;49.038;8.710;2023-03-01T04:47:05;0.00;92.00
10123;DHT22;5101;49.038;8.710;2023-03-01T04:49:30;0.00;92.00
10123;DHT22;5101;49.038;8.710;2023-03-01T04:51:56;0.10;92.00
10123;DHT22;5101;49.038;8.710;2023-03-01T04:54:24;0.10;92.00
10123;DHT22;5101;49.038;8.710;2023-03-01T04:56:50;0.10;92.00
10123;DHT22;5101;49.038;8.710;2023-03-01T04:59:15;0.00;92.00
10123;DHT22;5101;49.038;8.710;2023-03-01T05:01:41;0.00;92.00
10123;DHT22;5101;49.038;8.710;2023-03-01T05:04:08;0.00;92.10
10123;DHT22;5101;49.038;8.710;2023-03-01T05:06:37;0.00;92.10
10123;DHT22;5101;49.038;8.710;2023-03-01T05:09:03;0.00;92.20
10123;DHT22;5101;49.038;8.710;2023-03-01T05:11:28;0.00;92.20
10123;DHT22;5101;49.038;8.710;2023-03-01T05:13:58;0.00;92.10
10123;DHT22;5101;49.038;8.710;2023-03-01T05:16:24;0.00;92.10
10123;DHT22;5101;49.038;8.710;2023-03-01T05:18:49;0.00;92.10
10123;DHT22;5101;49.038;8.710;2023-03-01T05:21:16;0.00;92.10
10123;DHT22;5101;49.038;8.710;2023-03-01T05:23:42;0.10;92.10
10123;DHT22;5101;49.038;8.710;2023-03-01T05:26:08;0.00;92.10
10123;DHT22;5101;49.038;8.710;2023-03-01T05:28:34;0.00;92.20
10123;DHT22;5101;49.038;8.710;2023-03-01T05:31:00;-0.10;92.30
10123;DHT22;5101;49.038;8.710;2023-03-01T05:33:26;-0.20;92.30
10123;DHT22;5101;49.038;8.710;2023-03-01T05:35:52;-0.20;92.40
10123;DHT22;5101;49.038;8.710;2023-03-01T05:38:19;-0.10;92.40
10123;DHT22;5101;49.038;8.710;2023-03-01T05:40:47;-0.10;92.40
10123;DHT22;5101;49.038;8.710;2023-03-01T05:43:14;-0.10;92.40
10123;DHT22;5101;49.038;8.710;2023-03-01T05:45:41;-0.10;92.40
10123;DHT22;5101;49.038;8.710;2023-03-01T05:48:07;-0.20;92.40
10123;DHT22;5101;49.038;8.710;2023-03-01T05:50:36;-0.20;92.50
10123;DHT22;5101;49.038;8.710;2023-03-01T05:53:04;-0.30;92.60
10123;DHT22;5101;49.038;8.710;2023-03-01T05:55:34;-0.30;92.60
10123;DHT22;5101;49.038;8.710;2023-03-01T05:58:05;-0.30;92.70
10123;DHT22;5101;49.038;8.710;2023-03-01T06:00:32;-0.30;92.70
10123;DHT22;5101;49.038;8.710;2023-03-01T06:02:58;-0.20;92.70
10123;DHT22;5101;49.038;8.710;2023-03-01T06:05:25;-0.20;92.70
10123;DHT22;5101;49.038;8.710;2023-03-01T06:07:51;-0.20;92.70
10123;DHT22;5101;49.038;8.710;2023-03-01T06:10:18;-0.10;92.70
10123;DHT22;5101;49.038;8.710;2023-03-01T06:12:44;-0.10;92.80
10123;DHT22;5101;49.038;8.710;2023-03-01T06:15:11;-0.10;92.70
10123;DHT22;5101;49.038;8.710;2023-03-01T06:17:39;-0.10;92.70
10123;DHT22;5101;49.038;8.710;2023-03-01T06:20:08;0.00;92.60
10123;DHT22;5101;49.038;8.710;2023-03-01T06:22:34;0.00;92.60
10123;DHT22;5101;49.038;8.710;2023-03-01T06:25:00;0.00;92.60
10123;DHT22;5101;49.038;8.710;2023-03-01T06:27:25;0.00;92.50
10123;DHT22;5101;49.038;8.710;2023-03-01T06:29:50;0.10;92.60
10123;DHT22;5101;49.038;8.710;2023-03-01T06:32:16;0.10;92.50
10123;DHT22;5101;49.038;8.710;2023-03-01T06:34:42;0.10;92.60
10123;DHT22;5101;49.038;8.710;2023-03-01T06:37:07;0.10;92.60
10123;DHT22;5101;49.038;8.710;2023-03-01T06:39:33;0.10;92.60
10123;DHT22;5101;49.038;8.710;2023-03-01T06:41:59;0.10;92.60
10123;DHT22;5101;49.038;8.710;2023-03-01T06:44:25;0.10;92.70
10123;DHT22;5101;49.038;8.710;2023-03-01T06:46:50;0.10;92.70
10123;DHT22;5101;49.038;8.710;2023-03-01T06:49:16;0.10;92.90
10123;DHT22;5101;49.038;8.710;2023-03-01T06:51:43;0.10;92.90
10123;DHT22;5101;49.038;8.710;2023-03-01T06:54:09;0.50;93.00
10123;DHT22;5101;49.038;8.710;2023-03-01T06:56:35;0.60;93.10
10123;DHT22;5101;49.038;8.710;2023-03-01T06:59:01;0.50;93.20
10123;DHT22;5101;49.038;8.710;2023-03-01T07:01:28;0.50;93.20
10123;DHT22;5101;49.038;8.710;2023-03-01T07:03:54;0.50;93.20
10123;DHT22;5101;49.038;8.710;2023-03-01T07:06:20;0.40;93.20
10123;DHT22;5101;49.038;8.710;2023-03-01T07:08:45;0.40;93.20
10123;DHT22;5101;49.038;8.710;2023-03-01T07:11:11;0.30;93.10
10123;DHT22;5101;49.038;8.710;2023-03-01T07:13:36;0.50;93.20
10123;DHT22;5101;49.038;8.710;2023-03-01T07:16:02;0.30;93.10
10123;DHT22;5101;49.038;8.710;2023-03-01T07:18:27;0.40;93.00
10123;DHT22;5101;49.038;8.710;2023-03-01T07:20:53;0.50;93.00
10123;DHT22;5101;49.038;8.710;2023-03-01T07:23:18;0.50;92.90
10123;DHT22;5101;49.038;8.710;2023-03-01T07:25:44;0.50;92.90
10123;DHT22;5101;49.038;8.710;2023-03-01T07:28:09;0.70;92.80
10123;DHT22;5101;49.038;8.710;2023-03-01T07:30:35;0.90;92.60
10123;DHT22;5101;49.038;8.710;2023-03-01T07:33:00;1.10;92.40
10123;DHT22;5101;49.038;8.710;2023-03-01T07:35:26;1.10;92.20
10123;DHT22;5101;49.038;8.710;2023-03-01T07:37:52;1.10;92.00
10123;DHT22;5101;49.038;8.710;2023-03-01T07:40:19;1.30;91.80
10123;DHT22;5101;49.038;8.710;2023-03-01T07:42:44;1.50;91.60
10123;DHT22;5101;49.038;8.710;2023-03-01T07:45:11;1.70;91.40
10123;DHT22;5101;49.038;8.710;2023-03-01T07:47:36;1.90;91.10
10123;DHT22;5101;49.038;8.710;2023-03-01T07:50:03;2.00;90.70
10123;DHT22;5101;49.038;8.710;2023-03-01T07:52:29;2.30;90.40
10123;DHT22;5101;49.038;8.710;2023-03-01T07:54:54;2.80;89.90
10123;DHT22;5101;49.038;8.710;2023-03-01T07:57:20;3.00;88.20
10123;DHT22;5101;49.038;8.710;2023-03-01T07:59:45;3.30;87.50
10123;DHT22;5101;49.038;8.710;2023-03-01T08:02:11;3.50;86.30
10123;DHT22;5101;49.038;8.710;2023-03-01T08:04:36;3.90;84.80
10123;DHT22;5101;49.038;8.710;2023-03-01T08:07:05;4.10;83.60
10123;DHT22;5101;49.038;8.710;2023-03-01T08:09:31;4.50;81.90
10123;DHT22;5101;49.038;8.710;2023-03-01T08:11:57;4.90;80.60
10123;DHT22;5101;49.038;8.710;2023-03-01T08:14:25;5.20;79.10
10123;DHT22;5101;49.038;8.710;2023-03-01T08:16:50;5.60;77.70
10123;DHT22;5101;49.038;8.710;2023-03-01T08:19:16;6.00;76.40
10123;DHT22;5101;49.038;8.710;2023-03-01T08:21:42;6.20;74.90
10123;DHT22;5101;49.038;8.710;2023-03-01T08:24:07;6.40;73.40
10123;DHT22;5101;49.038;8.710;2023-03-01T08:26:35;5.90;72.50
10123;DHT22;5101;49.038;8.710;2023-03-01T08:29:01;6.00;71.90
10123;DHT22;5101;49.038;8.710;2023-03-01T08:31:34;6.20;71.10
10123;DHT22;5101;49.038;8.710;2023-03-01T08:34:06;6.20;69.50
10123;DHT22;5101;49.038;8.710;2023-03-01T08:36:37;6.20;68.40
10123;DHT22;5101;49.038;8.710;2023-03-01T08:39:03;6.50;68.00
10123;DHT22;5101;49.038;8.710;2023-03-01T08:41:29;6.60;66.70
10123;DHT22;5101;49.038;8.710;2023-03-01T08:43:55;6.70;66.20
10123;DHT22;5101;49.038;8.710;2023-03-01T08:46:44;7.00;65.20
10123;DHT22;5101;49.038;8.710;2023-03-01T08:49:14;7.50;63.00
10123;DHT22;5101;49.038;8.710;2023-03-01T08:51:40;8.00;61.50
10123;DHT22;5101;49.038;8.710;2023-03-01T08:54:10;8.20;60.60
10123;DHT22;5101;49.038;8.710;2023-03-01T08:56:36;8.60;59.50
10123;DHT22;5101;49.038;8.710;2023-03-01T08:59:01;8.80;57.90
10123;DHT22;5101;49.038;8.710;2023-03-01T09:01:27;8.90;56.80
10123;DHT22;5101;49.038;8.710;2023-03-01T09:03:53;8.80;55.30
10123;DHT22;5101;49.038;8.710;2023-03-01T09:06:18;8.80;54.90
10123;DHT22;5101;49.038;8.710;2023-03-01T09:08:45;9.30;53.30
10123;DHT22;5101;49.038;8.710;2023-03-01T09:11:14;9.60;51.70
10123;DHT22;5101;49.038;8.710;2023-03-01T09:13:41;9.70;51.40
10123;DHT22;5101;49.038;8.710;2023-03-01T09:16:07;9.60;50.20
10123;DHT22;5101;49.038;8.710;2023-03-01T09:18:34;9.90;50.40
10123;DHT22;5101;49.038;8.710;2023-03-01T09:21:13;10.10;47.20
10123;DHT22;5101;49.038;8.710;2023-03-01T09:23:41;10.50;45.60
10123;DHT22;5101;49.038;8.710;2023-03-01T09:26:09;10.60;44.20
10123;DHT22;5101;49.038;8.710;2023-03-01T09:28:35;10.60;44.10
10123;DHT22;5101;49.038;8.710;2023-03-01T09:31:02;10.50;43.20
10123;DHT22;5101;49.038;8.710;2023-03-01T09:33:29;10.60;42.80
10123;DHT22;5101;49.038;8.710;2023-03-01T09:35:59;10.70;42.40
10123;DHT22;5101;49.038;8.710;2023-03-01T09:38:25;10.40;42.30
10123;DHT22;5101;49.038;8.710;2023-03-01T09:40:51;10.80;42.30
10123;DHT22;5101;49.038;8.710;2023-03-01T09:45:45;10.80;40.50
10123;DHT22;5101;49.038;8.710;2023-03-01T09:48:22;10.00;40.60
10123;DHT22;5101;49.038;8.710;2023-03-01T09:50:49;9.70;42.30
10123;DHT22;5101;49.038;8.710;2023-03-01T09:53:21;9.60;42.70
10123;DHT22;5101;49.038;8.710;2023-03-01T09:56:04;10.00;42.70
10123;DHT22;5101;49.038;8.710;2023-03-01T10:01:29;10.00;40.80
10123;DHT22;5101;49.038;8.710;2023-03-01T10:09:37;10.50;41.90
10123;DHT22;5101;49.038;8.710;2023-03-01T10:12:08;10.60;40.30
10123;DHT22;5101;49.038;8.710;2023-03-01T10:17:17;10.00;40.50
10123;DHT22;5101;49.038;8.710;2023-03-01T10:19:46;10.20;40.90
10123;DHT22;5101;49.038;8.710;2023-03-01T10:22:24;10.40;40.40
10123;DHT22;5101;49.038;8.710;2023-03-01T10:24:53;10.40;40.50
10123;DHT22;5101;49.038;8.710;2023-03-01T10:30:13;10.70;39.60
10123;DHT22;5101;49.038;8.710;2023-03-01T10:32:42;10.70;40.10
10123;DHT22;5101;49.038;8.710;2023-03-01T10:35:27;10.80;39.90
10123;DHT22;5101;49.038;8.710;2023-03-01T10:38:08;10.90;39.80
10123;DHT22;5101;49.038;8.710;2023-03-01T10:40:35;11.10;39.60
10123;DHT22;5101;49.038;8.710;2023-03-01T10:43:05;11.30;39.10
10123;DHT22;5101;49.038;8.710;2023-03-01T10:45:39;11.50;38.70
10123;DHT22;5101;49.038;8.710;2023-03-01T10:48:11;11.70;38.40
10123;DHT22;5101;49.038;8.710;2023-03-01T10:50:38;11.60;38.20
10123;DHT22;5101;49.038;8.710;2023-03-01T10:53:05;11.20;38.30
10123;DHT22;5101;49.038;8.710;2023-03-01T10:55:42;10.90;38.30
10123;DHT22;5101;49.038;8.710;2023-03-01T10:58:16;10.90;38.50
10123;DHT22;5101;49.038;8.710;2023-03-01T11:03:23;10.20;38.60
10123;DHT22;5101;49.038;8.710;2023-03-01T11:06:05;10.10;38.90
10123;DHT22;5101;49.038;8.710;2023-03-01T11:11:19;10.20;39.50
10123;DHT22;5101;49.038;8.710;2023-03-01T11:16:15;10.70;39.10
10123;DHT22;5101;49.038;8.710;2023-03-01T11:19:15;10.70;38.90
10123;DHT22;5101;49.038;8.710;2023-03-01T11:21:54;10.50;38.80
10123;DHT22;5101;49.038;8.710;2023-03-01T11:24:33;10.60;38.80
10123;DHT22;5101;49.038;8.710;2023-03-01T11:27:02;10.70;38.30
10123;DHT22;5101;49.038;8.710;2023-03-01T11:29:42;10.60;38.40
10123;DHT22;5101;49.038;8.710;2023-03-01T11:32:13;10.60;38.30
10123;DHT22;5101;49.038;8.710;2023-03-01T11:34:58;10.70;38.40
10123;DHT22;5101;49.038;8.710;2023-03-01T11:37:41;10.80;38.40
10123;DHT22;5101;49.038;8.710;2023-03-01T11:40:24;10.60;38.40
10123;DHT22;5101;49.038;8.710;2023-03-01T11:43:15;10.80;38.60
10123;DHT22;5101;49.038;8.710;2023-03-01T11:51:02;10.10;38.80
10123;DHT22;5101;49.038;8.710;2023-03-01T11:56:38;10.50;39.10
10123;DHT22;5101;49.038;8.710;2023-03-01T12:04:44;10.20;38.80
10123;DHT22;5101;49.038;8.710;2023-03-01T12:10:24;9.80;40.50
10123;DHT22;5101;49.038;8.710;2023-03-01T12:16:26;9.70;40.50
10123;DHT22;5101;49.038;8.710;2023-03-01T12:19:01;9.60;41.00
10123;DHT22;5101;49.038;8.710;2023-03-01T12:21:41;10.00;41.50
10123;DHT22;5101;49.038;8.710;2023-03-01T12:24:25;10.10;42.20
10123;DHT22;5101;49.038;8.710;2023-03-01T12:27:23;9.90;42.10
10123;DHT22;5101;49.038;8.710;2023-03-01T12:32:40;9.90;41.40
10123;DHT22;5101;49.038;8.710;2023-03-01T12:35:36;9.70;41.90
10123;DHT22;5101;49.038;8.710;2023-03-01T12:38:11;9.50;41.90
10123;DHT22;5101;49.038;8.710;2023-03-01T12:41:08;9.40;42.50
10123;DHT22;5101;49.038;8.710;2023-03-01T12:49:16;9.60;42.70
10123;DHT22;5101;49.038;8.710;2023-03-01T12:51:59;9.60;42.70
10123;DHT22;5101;49.038;8.710;2023-03-01T12:54:32;9.70;43.20
10123;DHT22;5101;49.038;8.710;2023-03-01T12:57:06;9.70;42.80
10123;DHT22;5101;49.038;8.710;2023-03-01T13:02:49;10.00;42.00
10123;DHT22;5101;49.038;8.710;2023-03-01T13:05:31;9.90;43.00
10123;DHT22;5101;49.038;8.710;2023-03-01T13:08:01;9.60;42.70
10123;DHT22;5101;49.038;8.710;2023-03-01T13:11:03;9.40;42.80
10123;DHT22;5101;49.038;8.710;2023-03-01T13:13:31;9.30;43.40
10123;DHT22;5101;49.038;8.710;2023-03-01T13:15:57;9.40;43.70
10123;DHT22;5101;49.038;8.710;2023-03-01T13:20:50;9.20;43.80
10123;DHT22;5101;49.038;8.710;2023-03-01T13:31:00;9.10;44.30
10123;DHT22;5101;49.038;8.710;2023-03-01T13:35:52;8.90;44.60
10123;DHT22;5101;49.038;8.710;2023-03-01T13:38:45;8.90;44.80
10123;DHT22;5101;49.038;8.710;2023-03-01T13:41:12;8.80;45.00
10123;DHT22;5101;49.038;8.710;2023-03-01T13:43:41;8.80;45.10
10123;DHT22;5101;49.038;8.710;2023-03-01T13:46:20;8.80;45.40
10123;DHT22;5101;49.038;8.710;2023-03-01T13:48:50;8.80;45.50
10123;DHT22;5101;49.038;8.710;2023-03-01T13:51:22;8.70;45.60
10123;DHT22;5101;49.038;8.710;2023-03-01T13:53:48;8.80;45.70
10123;DHT22;5101;49.038;8.710;2023-03-01T13:56:21;8.80;45.80
10123;DHT22;5101;49.038;8.710;2023-03-01T13:58:51;9.00;46.40
10123;DHT22;5101;49.038;8.710;2023-03-01T14:01:24;8.80;46.10
10123;DHT22;5101;49.038;8.710;2023-03-01T14:03:50;8.90;46.20
10123;DHT22;5101;49.038;8.710;2023-03-01T14:06:19;8.80;46.10
10123;DHT22;5101;49.038;8.710;2023-03-01T14:08:46;8.90;46.30
10123;DHT22;5101;49.038;8.710;2023-03-01T14:19:24;8.80;47.00
10123;DHT22;5101;49.038;8.710;2023-03-01T14:22:20;8.80;47.20
10123;DHT22;5101;49.038;8.710;2023-03-01T14:24:50;8.70;47.30
10123;DHT22;5101;49.038;8.710;2023-03-01T14:27:17;8.70;47.10
10123;DHT22;5101;49.038;8.710;2023-03-01T14:29:43;8.90;47.30
10123;DHT22;5101;49.038;8.710;2023-03-01T14:32:18;8.70;46.90
10123;DHT22;5101;49.038;8.710;2023-03-01T14:34:46;8.70;46.80
10123;DHT22;5101;49.038;8.710;2023-03-01T14:37:24;8.60;46.60
10123;DHT22;5101;49.038;8.710;2023-03-01T14:39:51;8.50;46.60
10123;DHT22;5101;49.038;8.710;2023-03-01T14:42:18;8.40;46.70
10123;DHT22;5101;49.038;8.710;2023-03-01T14:44:47;8.50;46.90
10123;DHT22;5101;49.038;8.710;2023-03-01T14:47:25;8.40;46.90
10123;DHT22;5101;49.038;8.710;2023-03-01T14:49:57;8.40;47.00
10123;DHT22;5101;49.038;8.710;2023-03-01T14:52:33;8.50;47.20
10123;DHT22;5101;49.038;8.710;2023-03-01T14:55:01;8.50;47.10
10123;DHT22;5101;49.038;8.710;2023-03-01T14:57:27;8.50;47.20
10123;DHT22;5101;49.038;8.710;2023-03-01T14:59:55;8.50;47.20
10123;DHT22;5101;49.038;8.710;2023-03-01T15:02:24;8.50;47.30
10123;DHT22;5101;49.038;8.710;2023-03-01T15:04:58;8.50;47.20
10123;DHT22;5101;49.038;8.710;2023-03-01T15:07:37;8.50;47.30
10123;DHT22;5101;49.038;8.710;2023-03-01T15:10:05;8.50;47.20
10123;DHT22;5101;49.038;8.710;2023-03-01T15:12:35;8.50;47.20
10123;DHT22;5101;49.038;8.710;2023-03-01T15:15:08;8.50;47.10
10123;DHT22;5101;49.038;8.710;2023-03-01T15:17:43;8.50;47.20
10123;DHT22;5101;49.038;8.710;2023-03-01T15:20:17;8.50;47.10
10123;DHT22;5101;49.038;8.710;2023-03-01T15:22:44;8.50;47.00
10123;DHT22;5101;49.038;8.710;2023-03-01T15:25:18;8.50;47.20
10123;DHT22;5101;49.038;8.710;2023-03-01T15:27:49;8.50;47.10
10123;DHT22;5101;49.038;8.710;2023-03-01T15:30:31;8.40;47.30
10123;DHT22;5101;49.038;8.710;2023-03-01T15:35:52;8.30;47.40
10123;DHT22;5101;49.038;8.710;2023-03-01T15:38:50;8.50;47.60
10123;DHT22;5101;49.038;8.710;2023-03-01T15:41:31;8.20;47.50
10123;DHT22;5101;49.038;8.710;2023-03-01T15:44:13;8.20;47.80
10123;DHT22;5101;49.038;8.710;2023-03-01T15:46:40;8.20;48.70
10123;DHT22;5101;49.038;8.710;2023-03-01T15:49:38;8.30;48.20
10123;DHT22;5101;49.038;8.710;2023-03-01T15:52:12;8.30;48.00
10123;DHT22;5101;49.038;8.710;2023-03-01T15:54:39;8.20;47.80
10123;DHT22;5101;49.038;8.710;2023-03-01T15:57:11;8.40;48.10
10123;DHT22;5101;49.038;8.710;2023-03-01T15:59:38;8.20;48.70
10123;DHT22;5101;49.038;8.710;2023-03-01T16:02:11;8.20;48.00
10123;DHT22;5101;49.038;8.710;2023-03-01T16:04:40;8.20;48.90
10123;DHT22;5101;49.038;8.710;2023-03-01T16:07:06;8.20;48.10
10123;DHT22;5101;49.038;8.710;2023-03-01T16:09:31;8.20;48.30
10123;DHT22;5101;49.038;8.710;2023-03-01T16:11:57;8.10;48.30
10123;DHT22;5101;49.038;8.710;2023-03-01T16:14:23;8.00;48.20
10123;DHT22;5101;49.038;8.710;2023-03-01T16:16:49;8.00;48.30
10123;DHT22;5101;49.038;8.710;2023-03-01T16:19:15;8.10;48.50
10123;DHT22;5101;49.038;8.710;2023-03-01T16:21:41;8.10;48.50
10123;DHT22;5101;49.038;8.710;2023-03-01T16:24:08;8.00;48.40
10123;DHT22;5101;49.038;8.710;2023-03-01T16:26:34;8.00;48.70
10123;DHT22;5101;49.038;8.710;2023-03-01T16:28:59;8.10;49.00
10123;DHT22;5101;49.038;8.710;2023-03-01T16:31:25;8.00;48.90
10123;DHT22;5101;49.038;8.710;2023-03-01T16:33:58;8.00;49.00
10123;DHT22;5101;49.038;8.710;2023-03-01T16:36:25;7.90;49.90
10123;DHT22;5101;49.038;8.710;2023-03-01T16:38:53;8.00;50.90
10123;DHT22;5101;49.038;8.710;2023-03-01T16:41:21;7.90;50.70
10123;DHT22;5101;49.038;8.710;2023-03-01T16:43:47;7.80;50.60
10123;DHT22;5101;49.038;8.710;2023-03-01T16:46:18;7.80;50.60
10123;DHT22;5101;49.038;8.710;2023-03-01T16:48:45;7.90;50.60
10123;DHT22;5101;49.038;8.710;2023-03-01T16:51:11;7.90;50.80
10123;DHT22;5101;49.038;8.710;2023-03-01T16:53:36;7.80;50.80
10123;DHT22;5101;49.038;8.710;2023-03-01T16:56:05;7.80;50.90
10123;DHT22;5101;49.038;8.710;2023-03-01T16:58:31;7.80;51.20
10123;DHT22;5101;49.038;8.710;2023-03-01T17:00:56;7.70;51.20
10123;DHT22;5101;49.038;8.710;2023-03-01T17:03:28;7.70;51.40
10123;DHT22;5101;49.038;8.710;2023-03-01T17:05:54;7.60;51.50
10123;DHT22;5101;49.038;8.710;2023-03-01T17:08:19;7.70;52.00
10123;DHT22;5101;49.038;8.710;2023-03-01T17:10:45;7.70;52.10
10123;DHT22;5101;49.038;8.710;2023-03-01T17:13:10;7.50;52.00
10123;DHT22;5101;49.038;8.710;2023-03-01T17:15:40;7.50;52.10
10123;DHT22;5101;49.038;8.710;2023-03-01T17:18:07;7.50;52.30
10123;DHT22;5101;49.038;8.710;2023-03-01T17:20:33;7.40;52.30
10123;DHT22;5101;49.038;8.710;2023-03-01T17:22:58;7.60;52.70
10123;DHT22;5101;49.038;8.710;2023-03-01T17:25:24;7.40;52.90
10123;DHT22;5101;49.038;8.710;2023-03-01T17:27:49;7.40;53.40
10123;DHT22;5101;49.038;8.710;2023-03-01T17:30:15;7.30;54.00
10123;DHT22;5101;49.038;8.710;2023-03-01T17:32:41;7.30;54.40
10123;DHT22;5101;49.038;8.710;2023-03-01T17:35:07;7.30;54.40
10123;DHT22;5101;49.038;8.710;2023-03-01T17:37:35;7.30;54.60
10123;DHT22;5101;49.038;8.710;2023-03-01T17:40:02;7.30;54.70
10123;DHT22;5101;49.038;8.710;2023-03-01T17:42:28;7.30;54.90
10123;DHT22;5101;49.038;8.710;2023-03-01T17:44:53;7.20;54.80